Time;durP1;ratioP1;P1;durP2;ratioP2;P2;SDS_P1;SDS_P2;PMS_P1;PMS_P2;Temp;Humidity;BMP_temperature;BMP_pressure;BME280_temperature;BME280_humidity;BME280_pressure;Samples;Min_cycle;Max_cycle;Signal;HPM_P1;HPM_P2
2021/08/29 00:02:03;;;;;;;5.55;4.05;;;;;;;12.41;90.30;100573.31;5011269;28;20111;-75
2021/08/29 00:04:28;;;;;;;6.40;4.18;;;;;;;12.38;89.58;100581.31;5009482;28;20037;-75
2021/08/29 00:06:53;;;;;;;6.15;4.50;;;;;;;12.35;89.54;100576.94;5010910;28;20040;-75
2021/08/29 00:09:19;;;;;;;5.78;4.45;;;;;;;12.34;90.36;100580.47;5011082;28;20033;-75
2021/08/29 00:11:44;;;;;;;6.68;5.07;;;;;;;12.35;90.30;100576.06;5010976;28;20042;-75
2021/08/29 00:14:09;;;;;;;4.35;3.78;;;;;;;12.34;90.30;100576.94;5011107;28;20117;-75
2021/08/29 00:16:35;;;;;;;6.13;4.97;;;;;;;12.34;90.97;100575.19;5010909;28;20065;-75
2021/08/29 00:19:01;;;;;;;5.88;4.90;;;;;;;12.31;90.42;100572.56;5011018;28;20118;-75
2021/08/29 00:21:26;;;;;;;6.20;4.10;;;;;;;12.32;90.82;100576.09;5011007;28;20468;-75
2021/08/29 00:23:51;;;;;;;6.97;3.97;;;;;;;12.30;90.69;100575.25;5011052;28;20034;-75
2021/08/29 00:26:17;;;;;;;6.78;4.28;;;;;;;12.28;90.39;100575.25;5010699;28;20037;-74
2021/08/29 00:28:42;;;;;;;6.93;5.57;;;;;;;12.27;90.38;100573.50;5026123;28;20038;-74
2021/08/29 00:31:07;;;;;;;6.72;5.22;;;;;;;12.24;90.23;100579.72;5009545;28;20069;-75
2021/08/29 00:33:33;;;;;;;8.45;5.15;;;;;;;12.24;90.02;100579.72;5010846;28;20076;-75
2021/08/29 00:35:58;;;;;;;6.75;5.22;;;;;;;12.24;90.28;100573.53;5014273;28;20076;-74
2021/08/29 00:38:24;;;;;;;11.73;7.00;;;;;;;12.22;90.29;100575.31;5013479;28;20120;-75
2021/08/29 00:40:50;;;;;;;5.70;4.13;;;;;;;12.19;90.32;100570.94;5011174;28;20042;-75
2021/08/29 00:43:16;;;;;;;9.30;5.22;;;;;;;12.16;90.54;100573.63;5013044;28;20034;-75
2021/08/29 00:45:42;;;;;;;7.35;6.30;;;;;;;12.17;90.52;100566.56;5014066;28;20062;-75
2021/08/29 00:48:09;;;;;;;5.68;4.90;;;;;;;12.20;90.48;100564.75;5014362;28;20034;-75
2021/08/29 00:50:35;;;;;;;6.20;5.38;;;;;;;12.20;90.76;100562.09;5021318;28;20033;-74
2021/08/29 00:53:14;;;;;;;9.38;5.25;;;;;;;12.20;91.14;100558.59;5009901;28;20030;-74
2021/08/29 00:55:40;;;;;;;6.82;5.90;;;;;;;12.21;91.22;100561.22;5012636;28;20057;-75
2021/08/29 00:58:06;;;;;;;9.45;6.80;;;;;;;12.22;91.36;100562.97;5012844;28;20033;-75
2021/08/29 01:00:34;;;;;;;7.97;6.10;;;;;;;12.25;91.30;100554.97;5013605;28;20113;-75
2021/08/29 01:03:00;;;;;;;6.20;5.30;;;;;;;12.25;91.35;100557.63;5018358;28;20102;-75
2021/08/29 01:05:30;;;;;;;8.10;5.32;;;;;;;12.32;91.13;100552.28;5016788;28;20025;-75
2021/08/29 01:08:17;;;;;;;8.10;5.80;;;;;;;12.35;90.73;100560.19;5006443;28;20053;-75
2021/08/29 01:10:53;;;;;;;8.38;5.72;;;;;;;12.31;90.10;100558.44;4993024;28;20534;-75
2021/08/29 01:13:27;;;;;;;8.00;5.45;;;;;;;12.24;90.52;100566.47;5026726;28;20038;-75
2021/08/29 01:15:57;;;;;;;5.72;4.35;;;;;;;12.23;89.92;100563.84;5012354;28;20076;-74
2021/08/29 01:18:24;;;;;;;7.68;4.90;;;;;;;12.22;89.76;100559.44;5020951;28;20065;-75
2021/08/29 01:21:12;;;;;;;8.88;5.32;;;;;;;12.22;89.96;100560.31;5011252;28;20031;-75
2021/08/29 01:23:42;;;;;;;7.43;6.15;;;;;;;12.19;89.70;100555.06;5010438;28;20369;-75
2021/08/29 01:26:34;;;;;;;6.93;5.28;;;;;;;12.14;90.07;100556.91;5020540;28;20033;-74
2021/08/29 01:29:03;;;;;;;8.50;5.78;;;;;;;12.14;90.32;100554.25;5008840;28;20030;-75
2021/08/29 01:31:32;;;;;;;6.50;4.38;;;;;;;12.14;89.98;100561.31;5012223;28;20080;-74
2021/08/29 01:34:01;;;;;;;5.38;4.30;;;;;;;12.14;89.44;100556.91;5012132;28;20109;-75
2021/08/29 01:36:31;;;;;;;6.57;4.18;;;;;;;12.17;89.09;100559.50;5026100;28;20034;-74
2021/08/29 01:38:59;;;;;;;6.22;4.70;;;;;;;12.20;89.83;100559.47;5010875;28;20030;-74
2021/08/29 01:41:25;;;;;;;5.47;3.08;;;;;;;12.26;89.26;100563.78;5011873;28;20033;-75
2021/08/29 01:43:51;;;;;;;5.88;4.60;;;;;;;12.30;89.62;100562.00;5011522;28;20018;-75
2021/08/29 01:46:18;;;;;;;7.00;4.78;;;;;;;12.36;89.25;100562.78;5012468;28;20083;-75
2021/08/29 01:49:04;;;;;;;7.68;5.18;;;;;;;12.35;89.80;100562.81;5011863;28;20073;-75
2021/08/29 01:51:29;;;;;;;6.43;5.57;;;;;;;12.38;90.24;100557.47;5013084;28;20125;-75
2021/08/29 01:54:02;;;;;;;;;;;;;;;12.39;90.96;100568.06;5012168;28;20030;-75
2021/08/29 01:57:03;;;;;;;10.95;8.15;;;;;;;12.52;90.96;100562.59;5009200;28;20303;-75
2021/08/29 01:59:31;;;;;;;7.75;6.15;;;;;;;12.66;90.96;100561.50;5008258;28;20030;-75
2021/08/29 02:01:57;;;;;;;7.93;6.20;;;;;;;12.81;90.17;100559.53;5011644;28;20041;-75
2021/08/29 02:04:25;;;;;;;10.23;7.35;;;;;;;12.88;89.35;100562.06;5027695;28;20033;-75
2021/08/29 02:07:01;;;;;;;10.52;8.10;;;;;;;12.84;89.78;100557.72;5011208;28;20035;-74
2021/08/29 02:09:28;;;;;;;10.73;8.52;;;;;;;12.89;89.74;100553.22;5008003;28;20030;-75
2021/08/29 02:11:58;;;;;;;7.70;6.75;;;;;;;12.93;90.20;100554.03;5011448;28;20408;-75
2021/08/29 02:14:32;;;;;;;;;;;;;;;12.92;90.24;100555.81;5009645;28;20030;-75
2021/08/29 02:16:58;;;;;;;10.13;7.85;;;;;;;12.91;90.41;100555.84;5012310;28;20012;-75
2021/08/29 02:19:27;;;;;;;7.47;6.35;;;;;;;12.91;89.89;100550.53;5011188;28;20496;-75
2021/08/29 02:21:57;;;;;;;10.00;7.70;;;;;;;12.90;89.51;100548.81;5009384;28;20582;-75
2021/08/29 02:24:25;;;;;;;11.85;10.63;;;;;;;12.88;89.90;100547.94;5011271;28;20026;-75
2021/08/29 02:26:51;;;;;;;9.85;7.90;;;;;;;12.81;89.82;100554.22;5019395;28;20446;-75
2021/08/29 02:29:19;;;;;;;11.90;8.55;;;;;;;12.71;89.86;100553.50;5008812;28;20026;-75
2021/08/29 02:31:48;;;;;;;11.27;8.30;;;;;;;12.64;90.55;100542.13;5010758;28;20500;-76
2021/08/29 02:34:14;;;;;;;12.82;11.45;;;;;;;12.58;90.59;100552.81;5008818;28;20117;-75
2021/08/29 02:36:41;;;;;;;11.30;9.32;;;;;;;12.57;90.53;100551.03;5010769;28;20053;-75
2021/08/29 02:39:07;;;;;;;13.20;11.18;;;;;;;12.52;90.19;100552.88;5010922;28;20547;-75
2021/08/29 02:41:35;;;;;;;9.65;8.60;;;;;;;12.49;90.47;100547.63;5008119;28;20061;-75
2021/08/29 02:44:04;;;;;;;9.77;8.75;;;;;;;12.46;90.66;100551.19;4994617;28;20120;-75
2021/08/29 02:46:29;;;;;;;12.25;8.90;;;;;;;12.48;90.33;100544.09;5010697;28;20034;-75
2021/08/29 02:48:56;;;;;;;10.35;8.35;;;;;;;12.55;90.47;100541.34;5012018;28;20026;-75
2021/08/29 02:51:23;;;;;;;11.25;9.23;;;;;;;12.54;89.95;100545.78;5010757;28;20029;-74
2021/08/29 02:53:51;;;;;;;14.73;11.15;;;;;;;12.47;90.16;100547.66;5007243;28;20037;-75
2021/08/29 02:56:19;;;;;;;12.50;9.02;;;;;;;12.44;90.16;100541.50;5010113;28;20549;-75
2021/08/29 02:58:46;;;;;;;10.68;9.50;;;;;;;12.45;90.86;100543.28;5022990;28;20477;-75
2021/08/29 03:01:35;;;;;;;9.60;8.60;;;;;;;12.49;90.87;100552.91;5008815;28;20504;-75
2021/08/29 03:04:10;;;;;;;11.05;9.75;;;;;;;12.58;90.75;100551.94;5014836;28;20032;-75
2021/08/29 03:06:37;;;;;;;11.80;9.57;;;;;;;12.64;90.65;100547.41;5006277;28;20117;-75
2021/08/29 03:09:04;;;;;;;12.88;9.75;;;;;;;12.68;90.34;100548.22;5010391;28;20055;-75
2021/08/29 03:11:33;;;;;;;13.20;9.68;;;;;;;12.73;90.37;100549.03;5010478;28;20064;-75
2021/08/29 03:13:59;;;;;;;11.68;10.48;;;;;;;12.75;91.02;100543.72;5011650;28;20034;-75
2021/08/29 03:16:25;;;;;;;9.18;8.10;;;;;;;12.85;90.56;100545.34;5010237;28;20033;-75
2021/08/29 03:18:52;;;;;;;10.85;8.05;;;;;;;12.96;90.24;100546.03;5026227;28;20037;-75
2021/08/29 03:21:36;;;;;;;11.32;10.15;;;;;;;13.00;89.97;100539.81;5007952;28;20042;-74
2021/08/29 03:24:04;;;;;;;11.98;9.77;;;;;;;13.04;89.48;100530.91;5008135;28;20120;-75
2021/08/29 03:26:29;;;;;;;9.55;8.57;;;;;;;13.11;89.31;100537.84;5010129;28;20034;-75
2021/08/29 03:29:02;;;;;;;11.05;8.70;;;;;;;13.19;89.14;100535.09;5010280;28;20107;-75
2021/08/29 03:31:30;;;;;;;10.50;8.48;;;;;;;13.26;88.83;100539.41;5008134;28;20500;-75
2021/08/29 03:33:59;;;;;;;12.93;10.00;;;;;;;13.30;88.65;100537.56;5011302;28;20041;-75
2021/08/29 03:36:30;;;;;;;12.90;10.52;;;;;;;13.34;88.34;100539.28;5018341;28;20104;-75
2021/08/29 03:38:57;;;;;;;13.85;10.80;;;;;;;13.40;88.15;100541.81;5008587;28;20026;-75
2021/08/29 03:41:23;;;;;;;11.18;8.38;;;;;;;13.47;87.82;100538.16;5010180;28;20034;-74
2021/08/29 03:43:49;;;;;;;11.95;9.73;;;;;;;13.45;88.04;100526.72;4993692;28;20030;-75
2021/08/29 03:46:15;;;;;;;12.15;9.68;;;;;;;13.48;87.92;100528.44;5007501;28;20057;-73
2021/08/29 03:48:43;;;;;;;10.68;9.57;;;;;;;13.52;88.14;100523.06;4993405;28;20076;-75
2021/08/29 03:51:10;;;;;;;12.48;9.63;;;;;;;13.51;88.14;100531.88;5018412;28;20037;-75
2021/08/29 03:53:37;;;;;;;10.38;9.05;;;;;;;13.59;88.64;100534.41;5023913;28;20041;-74
2021/08/29 03:56:04;;;;;;;12.60;9.57;;;;;;;13.66;88.08;100537.84;5007738;28;20037;-74
2021/08/29 03:58:32;;;;;;;9.88;8.80;;;;;;;13.70;88.03;100534.19;4993439;28;20559;-75
2021/08/29 04:00:57;;;;;;;12.75;9.45;;;;;;;13.70;87.95;100537.75;5011157;28;20767;-75
2021/08/29 04:03:24;;;;;;;13.63;11.07;;;;;;;13.75;87.16;100541.19;5006281;28;20031;-75
2021/08/29 04:06:12;;;;;;;12.80;10.70;;;;;;;13.73;87.21;100550.09;5008440;28;20780;-75
2021/08/29 04:08:44;;;;;;;13.55;11.52;;;;;;;13.72;87.13;100551.84;5020063;28;20385;-75
2021/08/29 04:11:10;;;;;;;13.95;11.88;;;;;;;13.73;86.97;100552.72;5029792;28;20038;-74
2021/08/29 04:13:38;;;;;;;17.50;12.40;;;;;;;13.76;87.17;100553.53;5013696;28;20050;-75
2021/08/29 04:16:18;;;;;;;14.48;11.73;;;;;;;13.79;87.85;100563.22;5018467;28;20084;-75
2021/08/29 04:18:49;;;;;;;17.48;12.00;;;;;;;13.81;87.44;100545.50;5021915;28;20030;-75
2021/08/29 04:21:21;;;;;;;13.32;11.32;;;;;;;13.82;87.64;100548.09;5011434;28;20031;-75
2021/08/29 04:23:46;;;;;;;17.40;12.32;;;;;;;13.87;87.71;100542.72;5013548;28;20447;-75
2021/08/29 04:26:13;;;;;;;14.50;12.50;;;;;;;13.91;87.34;100540.88;5013237;28;20036;-74
2021/08/29 04:28:41;;;;;;;24.98;15.60;;;;;;;13.93;87.09;100539.94;5011246;28;20717;-75
2021/08/29 04:31:09;;;;;;;21.65;13.38;;;;;;;13.95;86.56;100537.25;5014484;28;20038;-75
2021/08/29 04:33:42;;;;;;;19.27;12.45;;;;;;;13.90;86.73;100533.81;5013139;28;20030;-74
2021/08/29 04:36:25;;;;;;;18.83;14.18;;;;;;;13.80;87.75;100528.69;5010590;28;20052;-73
2021/08/29 04:38:51;;;;;;;22.35;14.70;;;;;;;13.81;87.48;100538.41;5013132;28;20420;-75
2021/08/29 04:41:18;;;;;;;19.60;15.98;;;;;;;13.86;87.75;100540.97;5029472;28;20149;-75
2021/08/29 04:43:43;;;;;;;20.73;15.38;;;;;;;13.93;88.04;100536.41;5013180;28;20088;-75
2021/08/29 04:46:08;;;;;;;20.63;14.52;;;;;;;13.99;87.08;100539.84;4996375;28;20029;-75
2021/08/29 04:48:35;;;;;;;22.45;15.27;;;;;;;13.99;87.01;100534.53;5012273;28;20045;-75
2021/08/29 04:51:01;;;;;;;17.05;13.32;;;;;;;14.02;86.99;100544.22;5012978;28;20497;-75
2021/08/29 04:53:26;;;;;;;17.38;13.77;;;;;;;14.07;86.65;100537.03;5012844;28;20087;-75
2021/08/29 04:55:51;;;;;;;19.65;15.68;;;;;;;14.09;87.18;100536.97;5012722;28;20623;-75
2021/08/29 04:58:19;;;;;;;24.65;16.52;;;;;;;14.15;86.95;100535.09;5012887;28;20084;-75
2021/08/29 05:00:45;;;;;;;27.00;18.55;;;;;;;14.13;87.17;100536.03;5010424;28;20027;-75
2021/08/29 05:03:11;;;;;;;23.83;17.38;;;;;;;14.18;87.23;100540.31;5012744;28;20029;-75
2021/08/29 05:05:38;;;;;;;25.67;17.35;;;;;;;14.25;87.21;100538.41;5012318;28;20034;-75
2021/08/29 05:08:04;;;;;;;20.83;15.20;;;;;;;14.27;87.44;100533.06;5026342;28;20036;-74
2021/08/29 05:10:31;;;;;;;21.45;15.57;;;;;;;14.36;86.92;100544.38;5012674;28;20057;-74
2021/08/29 05:13:03;;;;;;;;;;;;;;;14.36;87.36;100544.38;5014155;28;20046;-74
2021/08/29 05:15:29;;;;;;;20.50;15.20;;;;;;;14.46;87.43;100543.28;5009327;28;20411;-75
2021/08/29 05:17:54;;;;;;;27.75;18.48;;;;;;;14.56;87.22;100541.28;5012500;28;20125;-74
2021/08/29 05:20:22;;;;;;;41.50;21.55;;;;;;;14.58;86.85;100543.94;5011565;28;20087;-75
2021/08/29 05:23:07;;;;;;;36.30;20.70;;;;;;;14.66;86.34;100526.03;5013487;28;20045;-75
2021/08/29 05:25:59;;;;;;;27.38;19.42;;;;;;;14.73;86.56;100540.06;5011194;28;20563;-74
2021/08/29 05:28:25;;;;;;;24.42;18.25;;;;;;;14.78;86.17;100540.84;5020724;28;20385;-75
2021/08/29 05:30:51;;;;;;;39.03;20.92;;;;;;;14.86;85.86;100545.03;5012200;28;20500;-76
2021/08/29 05:33:18;;;;;;;29.15;20.02;;;;;;;14.94;85.47;100549.31;5012098;28;20041;-76
2021/08/29 05:35:43;;;;;;;22.95;17.30;;;;;;;14.90;86.43;100543.19;5009274;28;20041;-76
2021/08/29 05:38:09;;;;;;;23.20;17.35;;;;;;;15.01;85.95;100535.84;5007820;28;20121;-76
2021/08/29 05:40:53;;;;;;;23.73;18.45;;;;;;;15.05;86.55;100539.28;5013285;28;20033;-76
2021/08/29 05:43:37;;;;;;;35.72;18.52;;;;;;;15.08;86.06;100545.38;5013352;28;20361;-76
2021/08/29 05:46:02;;;;;;;25.95;18.02;;;;;;;15.16;85.38;100537.22;5011737;28;20042;-76
2021/08/29 05:48:28;;;;;;;28.90;21.23;;;;;;;15.20;85.56;100535.38;5011844;28;20079;-76
2021/08/29 05:50:53;;;;;;;34.92;21.10;;;;;;;15.19;85.58;100536.28;5011740;28;20515;-77
2021/08/29 05:53:20;;;;;;;28.38;18.88;;;;;;;15.12;86.80;100536.44;5011696;28;20038;-76
2021/08/29 05:55:49;;;;;;;32.58;21.65;;;;;;;15.21;85.99;100543.31;5011186;28;20035;-76
2021/08/29 05:58:14;;;;;;;28.45;20.65;;;;;;;15.31;85.55;100541.31;5012714;28;20046;-76
2021/08/29 06:00:43;;;;;;;29.10;20.02;;;;;;;15.38;84.85;100536.69;5011627;28;20038;-76
2021/08/29 06:03:09;;;;;;;25.58;18.00;;;;;;;15.41;85.21;100537.50;5011651;28;20502;-76
2021/08/29 06:05:35;;;;;;;37.47;23.45;;;;;;;15.41;85.11;100531.31;5011267;28;20034;-76
2021/08/29 06:08:09;;;;;;;33.08;21.92;;;;;;;15.51;84.86;100533.69;5011524;28;20037;-76
2021/08/29 06:10:34;;;;;;;28.88;19.98;;;;;;;15.62;84.12;100529.88;5011451;28;20029;-76
2021/08/29 06:13:00;;;;;;;36.58;22.05;;;;;;;15.68;83.84;100537.66;5011344;28;20034;-76
2021/08/29 06:15:27;;;;;;;34.33;22.85;;;;;;;15.75;83.76;100537.50;5011188;28;20041;-76
2021/08/29 06:17:53;;;;;;;37.10;23.23;;;;;;;15.71;83.84;100542.94;5011408;28;20076;-76
2021/08/29 06:20:18;;;;;;;29.55;20.67;;;;;;;15.81;83.60;100546.22;5011286;28;20033;-76
2021/08/29 06:22:44;;;;;;;23.42;19.30;;;;;;;15.86;83.74;100531.00;5011153;28;20121;-77
2021/08/29 06:25:28;;;;;;;28.60;20.38;;;;;;;15.96;83.53;100535.16;5012334;28;20057;-76
2021/08/29 06:28:12;;;;;;;27.75;20.67;;;;;;;16.04;82.94;100537.59;5012802;28;20068;-76
2021/08/29 06:30:56;;;;;;;29.35;21.40;;;;;;;16.08;82.50;100532.13;5012223;28;20164;-76
2021/08/29 06:33:40;;;;;;;31.75;22.27;;;;;;;16.11;82.30;100533.81;5012580;28;20045;-76
2021/08/29 06:36:12;;;;;;;24.05;17.88;;;;;;;16.08;82.44;100534.78;5026976;28;20041;-76
2021/08/29 06:38:37;;;;;;;28.85;21.25;;;;;;;16.05;82.76;100540.22;5011064;28;20041;-76
2021/08/29 06:41:03;;;;;;;26.25;19.95;;;;;;;16.04;82.84;100541.13;5012150;28;20038;-76
2021/08/29 06:43:28;;;;;;;30.05;22.20;;;;;;;16.05;82.55;100534.88;5025820;28;20049;-76
2021/08/29 06:45:56;;;;;;;29.33;20.92;;;;;;;16.05;82.85;100539.34;5012195;28;20144;-77
2021/08/29 06:48:50;;;;;;;28.90;20.85;;;;;;;16.13;82.84;100537.31;5009691;28;20042;-77
2021/08/29 06:51:47;;;;;;;30.00;19.40;;;;;;;16.30;82.46;100531.53;4996415;28;20393;-76
2021/08/29 06:54:31;;;;;;;28.05;19.40;;;;;;;16.42;82.23;100526.66;5012031;28;20188;-77
2021/08/29 06:57:25;;;;;;;32.10;22.50;;;;;;;16.40;81.67;100530.31;5011745;28;20393;-76
2021/08/29 06:59:51;;;;;;;28.88;21.80;;;;;;;16.42;81.70;100523.16;4993593;28;20463;-76
2021/08/29 07:02:17;;;;;;;27.38;20.13;;;;;;;16.47;82.13;100521.22;5010547;28;20038;-76
2021/08/29 07:04:42;;;;;;;24.98;20.17;;;;;;;16.64;81.84;100523.38;5019081;28;20048;-76
2021/08/29 07:07:10;;;;;;;30.10;21.23;;;;;;;16.80;81.06;100524.66;5009512;28;20436;-76
2021/08/29 07:09:51;;;;;;;25.15;18.25;;;;;;;16.78;81.34;100530.97;5008195;28;20045;-76
2021/08/29 07:12:17;;;;;;;22.40;16.80;;;;;;;16.75;81.36;100531.03;5010425;28;20034;-76
2021/08/29 07:14:51;;;;;;;23.50;17.65;;;;;;;16.81;81.17;100533.53;5008619;28;20061;-76
2021/08/29 07:17:18;;;;;;;24.27;18.50;;;;;;;16.73;80.97;100532.84;5023511;28;20452;-76
2021/08/29 07:19:45;;;;;;;28.10;21.35;;;;;;;16.84;80.93;100530.75;5023212;28;20044;-76
2021/08/29 07:22:33;;;;;;;24.75;18.90;;;;;;;16.90;80.86;100530.56;5001461;28;20081;-77
2021/08/29 07:25:19;;;;;;;21.35;16.92;;;;;;;16.96;80.64;100530.38;5008604;28;20046;-76
2021/08/29 07:28:04;;;;;;;22.58;17.42;;;;;;;17.00;80.47;100525.78;5011589;28;20071;-76
2021/08/29 07:30:58;;;;;;;22.00;17.05;;;;;;;17.03;80.44;100525.72;5010754;28;20125;-77
2021/08/29 07:33:27;;;;;;;19.90;16.08;;;;;;;17.04;80.42;100528.31;5009540;28;20044;-76
2021/08/29 07:36:08;;;;;;;19.58;15.55;;;;;;;17.11;80.23;100529.00;5007339;28;20025;-77
2021/08/29 07:38:36;;;;;;;20.05;16.33;;;;;;;17.04;80.24;100533.66;5010235;28;20036;-76
2021/08/29 07:41:02;;;;;;;20.48;16.10;;;;;;;17.01;79.79;100531.09;5007345;28;20034;-76
2021/08/29 07:43:28;;;;;;;19.38;15.90;;;;;;;17.02;80.38;100543.47;5011407;28;20053;-77
2021/08/29 07:45:54;;;;;;;23.95;16.80;;;;;;;16.91;80.00;100542.97;5005841;28;20042;-76
2021/08/29 07:48:19;;;;;;;21.27;17.27;;;;;;;16.88;80.39;100534.22;5014185;28;20045;-76
2021/08/29 07:50:45;;;;;;;19.45;15.60;;;;;;;16.93;80.87;100538.47;5014119;28;20504;-76
2021/08/29 07:53:10;;;;;;;19.92;15.90;;;;;;;17.01;80.53;100538.22;5022352;28;20065;-77
2021/08/29 07:56:01;;;;;;;26.13;19.40;;;;;;;17.05;79.73;100535.38;5013523;28;20043;-76
2021/08/29 07:58:30;;;;;;;22.90;16.02;;;;;;;17.05;79.40;100535.38;5022311;28;20056;-77
2021/08/29 08:01:04;;;;;;;22.90;17.70;;;;;;;17.08;78.91;100537.97;5013591;28;20045;-77
2021/08/29 08:03:36;;;;;;;26.60;20.40;;;;;;;16.99;79.51;100542.72;5015498;28;20089;-76
2021/08/29 08:06:20;;;;;;;30.52;21.00;;;;;;;16.93;79.58;100534.94;5012968;28;20111;-77
2021/08/29 08:08:53;;;;;;;23.03;17.77;;;;;;;17.02;79.34;100532.81;5014900;28;20172;-77
2021/08/29 08:11:37;;;;;;;20.67;15.63;;;;;;;17.07;79.11;100538.00;5012258;28;20296;-77
2021/08/29 08:14:03;;;;;;;23.48;18.50;;;;;;;17.13;79.14;100544.94;5014635;28;20034;-77
2021/08/29 08:16:28;;;;;;;21.92;16.92;;;;;;;17.19;79.73;100542.09;5013477;28;20030;-76
2021/08/29 08:18:55;;;;;;;22.27;17.17;;;;;;;17.23;79.10;100543.72;5009833;28;20085;-76
2021/08/29 08:21:21;;;;;;;23.23;17.40;;;;;;;17.36;78.63;100539.69;5013475;28;20065;-77
2021/08/29 08:23:59;;;;;;;20.88;16.08;;;;;;;17.49;78.08;100532.16;5010808;28;20030;-77
2021/08/29 08:26:42;;;;;;;18.48;14.30;;;;;;;17.67;77.80;100538.66;5014506;28;20048;-76
2021/08/29 08:29:23;;;;;;;21.48;16.08;;;;;;;17.68;76.79;100543.94;5014786;28;20089;-77
2021/08/29 08:32:07;;;;;;;17.52;14.23;;;;;;;17.69;75.86;100545.66;5014888;28;20455;-76
2021/08/29 08:34:57;;;;;;;20.08;15.55;;;;;;;17.80;76.26;100536.44;5011355;28;20030;-77
2021/08/29 08:37:45;;;;;;;15.63;13.95;;;;;;;17.93;75.80;100535.94;5011406;28;20401;-76
2021/08/29 08:40:21;;;;;;;18.13;15.45;;;;;;;18.03;75.25;100541.81;5010906;28;20026;-77
2021/08/29 08:42:49;;;;;;;19.42;15.40;;;;;;;18.22;74.62;100542.00;5013160;28;20125;-77
2021/08/29 08:45:37;;;;;;;18.75;15.13;;;;;;;18.39;73.08;100542.25;5010479;28;20052;-77
2021/08/29 08:48:21;;;;;;;16.48;14.27;;;;;;;18.52;73.36;100531.97;5013202;28;20149;-77
2021/08/29 08:51:12;;;;;;;17.75;15.27;;;;;;;18.80;73.10;100534.41;4985532;28;20042;-77
2021/08/29 08:54:02;;;;;;;17.67;14.82;;;;;;;18.86;72.04;100535.09;5010509;28;20038;-77
2021/08/29 08:56:47;;;;;;;15.55;13.73;;;;;;;18.79;72.27;100538.03;5013469;28;20511;-77
2021/08/29 08:59:32;;;;;;;15.35;13.68;;;;;;;18.73;72.31;100535.59;5011494;28;20076;-77
2021/08/29 09:02:21;;;;;;;18.65;15.32;;;;;;;18.67;72.92;100532.28;5016244;28;20057;-77
2021/08/29 09:05:10;;;;;;;16.25;13.35;;;;;;;18.50;73.30;100530.28;5017096;28;20088;-77
2021/08/29 09:07:37;;;;;;;16.15;14.02;;;;;;;18.47;73.36;100525.03;5016599;28;20101;-77
2021/08/29 09:10:04;;;;;;;17.15;13.20;;;;;;;18.52;72.14;100517.69;5013070;28;20041;-77
2021/08/29 09:12:29;;;;;;;17.20;13.77;;;;;;;18.60;71.72;100518.25;5021083;28;20041;-77
2021/08/29 09:14:59;;;;;;;13.57;10.95;;;;;;;18.77;71.29;100518.50;5012546;28;20041;-77
2021/08/29 09:17:34;;;;;;;14.13;11.55;;;;;;;18.95;70.18;100516.88;5012816;28;20512;-77
2021/08/29 09:20:17;;;;;;;15.50;12.25;;;;;;;19.05;68.36;100520.94;5028976;28;20076;-77
2021/08/29 09:22:47;;;;;;;15.30;10.07;;;;;;;19.34;67.91;100517.97;5026586;28;20050;-77
2021/08/29 09:25:39;;;;;;;12.35;10.02;;;;;;;19.59;67.63;100510.59;5012668;28;20408;-77
2021/08/29 09:28:14;;;;;;;11.98;8.80;;;;;;;19.83;67.17;100505.13;5010347;28;20556;-77
2021/08/29 09:30:49;;;;;;;10.63;7.57;;;;;;;19.94;64.04;100508.22;5028162;28;20049;-77
2021/08/29 09:33:17;;;;;;;8.18;7.03;;;;;;;20.00;64.79;100507.94;5012090;28;20522;-77
2021/08/29 09:35:42;;;;;;;7.97;5.90;;;;;;;20.24;64.49;100505.06;5020394;28;20034;-77
2021/08/29 09:38:36;;;;;;;5.63;4.57;;;;;;;20.21;63.74;100505.19;5010655;28;20037;-77
2021/08/29 09:41:25;;;;;;;5.60;4.15;;;;;;;20.25;62.67;100502.31;5011522;28;20041;-77
2021/08/29 09:44:14;;;;;;;6.63;4.65;;;;;;;20.24;63.29;100494.34;5010070;28;20026;-77
2021/08/29 09:47:03;;;;;;;4.78;3.90;;;;;;;20.24;62.91;100497.00;5020172;28;20033;-76
2021/08/29 09:49:50;;;;;;;6.30;4.80;;;;;;;20.24;62.91;100488.97;5013059;28;20539;-78
2021/08/29 09:52:27;;;;;;;6.85;5.05;;;;;;;20.28;63.35;100487.91;5010504;28;20042;-77
2021/08/29 09:55:11;;;;;;;6.38;4.80;;;;;;;20.25;63.87;100486.25;5008328;28;20129;-78
2021/08/29 09:58:23;;;;;;;5.80;4.40;;;;;;;20.43;61.78;100487.16;5000650;28;20041;-77
2021/08/29 10:01:09;;;;;;;6.45;4.38;;;;;;;20.58;61.35;100486.44;5008047;28;20452;-77
2021/08/29 10:03:43;;;;;;;5.82;4.32;;;;;;;20.72;60.80;100483.13;5006951;28;20149;-78
2021/08/29 10:06:25;;;;;;;5.73;4.30;;;;;;;20.85;59.42;100482.50;5010973;28;20125;-77
2021/08/29 10:08:52;;;;;;;5.10;3.60;;;;;;;20.91;61.04;100479.53;4995165;28;20030;-77
2021/08/29 10:11:30;;;;;;;6.57;4.32;;;;;;;20.91;60.29;100479.53;4989589;28;20378;-77
2021/08/29 10:13:57;;;;;;;5.90;4.93;;;;;;;20.73;61.03;100481.31;5009354;28;20354;-77
2021/08/29 10:16:26;;;;;;;5.30;4.15;;;;;;;20.93;61.37;100483.88;5019582;28;20038;-77
2021/08/29 10:19:28;;;;;;;5.28;4.38;;;;;;;20.84;60.15;100484.31;4971190;28;20046;-78
2021/08/29 10:22:35;;;;;;;5.90;4.20;;;;;;;20.77;60.26;100480.19;4971196;28;20066;-77
2021/08/29 10:25:02;;;;;;;5.80;4.82;;;;;;;20.94;60.23;100474.88;4954872;28;20561;-78
2021/08/29 10:27:33;;;;;;;6.65;4.65;;;;;;;20.95;60.16;100465.00;4980721;28;20104;-77
2021/08/29 10:30:20;;;;;;;5.15;3.72;;;;;;;21.25;59.07;100465.28;5009456;28;20103;-78
2021/08/29 10:33:08;;;;;;;4.10;3.28;;;;;;;21.57;58.96;100457.38;5020846;28;20123;-77
2021/08/29 10:35:45;;;;;;;4.63;3.15;;;;;;;21.42;57.45;100464.41;5008391;28;20037;-78
2021/08/29 10:38:39;;;;;;;4.72;3.42;;;;;;;21.37;57.64;100455.69;5009352;28;20038;-77
2021/08/29 10:41:23;;;;;;;5.38;3.13;;;;;;;21.54;57.98;100449.50;5012544;28;20503;-77
2021/08/29 10:43:53;;;;;;;4.20;3.17;;;;;;;21.09;58.70;100461.59;5011006;28;20030;-77
2021/08/29 10:46:44;;;;;;;3.92;3.00;;;;;;;20.97;60.71;100463.97;5009825;28;20060;-78
2021/08/29 10:49:29;;;;;;;4.10;2.88;;;;;;;21.32;58.02;100457.75;5008575;28;20048;-77
2021/08/29 10:51:55;;;;;;;3.28;2.63;;;;;;;21.56;57.71;100447.56;5010867;28;20124;-77
2021/08/29 10:54:20;;;;;;;3.70;2.70;;;;;;;21.97;56.14;100439.97;5007415;28;20466;-77
2021/08/29 10:56:48;;;;;;;3.97;2.78;;;;;;;22.17;55.10;100441.56;5006796;28;20117;-78
2021/08/29 10:59:22;;;;;;;4.63;2.83;;;;;;;22.23;55.26;100446.63;5007530;28;20393;-78
2021/08/29 11:01:49;;;;;;;4.32;3.00;;;;;;;22.07;55.76;100446.56;5024096;28;20084;-77
2021/08/29 11:04:35;;;;;;;5.13;3.63;;;;;;;21.56;56.92;100442.19;5004534;28;20042;-78
2021/08/29 11:07:06;;;;;;;7.50;4.22;;;;;;;21.51;57.83;100437.09;4994573;28;20062;-77
2021/08/29 11:09:32;;;;;;;5.38;3.80;;;;;;;21.55;56.91;100433.28;5026791;28;20037;-78
2021/08/29 11:11:59;;;;;;;4.70;3.80;;;;;;;21.37;57.57;100424.34;5010503;28;20040;-78
2021/08/29 11:14:49;;;;;;;5.75;3.92;;;;;;;21.67;57.14;100445.19;5010691;28;20038;-77
2021/08/29 11:17:27;;;;;;;4.47;3.60;;;;;;;21.44;58.00;100428.47;5024587;28;20504;-78
2021/08/29 11:20:18;;;;;;;4.32;3.03;;;;;;;21.31;58.18;100431.88;5010161;28;20496;-77
2021/08/29 11:23:07;;;;;;;5.28;3.60;;;;;;;21.29;57.41;100431.94;5001242;28;20053;-78
2021/08/29 11:26:27;;;;;;;3.80;2.70;;;;;;;21.18;58.65;100428.94;5008487;28;20559;-77
2021/08/29 11:29:53;;;;;;;3.78;2.55;;;;;;;21.09;57.62;100422.25;5010844;28;20408;-78
2021/08/29 11:32:39;;;;;;;2.92;2.10;;;;;;;20.92;57.46;100430.28;5006590;28;20041;-77
2021/08/29 11:35:23;;;;;;;3.17;1.90;;;;;;;20.60;57.81;100430.09;5008798;28;20042;-75
2021/08/29 11:38:11;;;;;;;3.80;1.60;;;;;;;20.67;57.93;100426.16;5012147;28;20034;-76
2021/08/29 11:40:53;;;;;;;3.53;2.25;;;;;;;21.09;57.63;100424.03;5008958;28;20026;-75
2021/08/29 11:43:20;;;;;;;3.25;2.17;;;;;;;21.71;55.55;100419.88;5006687;28;20030;-76
2021/08/29 11:46:19;;;;;;;3.17;2.03;;;;;;;22.44;53.13;100422.16;5012831;28;20179;-76